createdAt,value
2022-12-31T00:02:06.695Z,1.12
2022-12-31T00:04:34.759Z,1.11
2022-12-31T00:07:02.622Z,1.10
2022-12-31T00:09:30.976Z,1.11
2022-12-31T00:11:58.836Z,1.13
2022-12-31T00:14:26.815Z,1.13
2022-12-31T00:16:55.305Z,1.14
2022-12-31T00:19:23.171Z,1.13
2022-12-31T00:21:51.377Z,1.13
2022-12-31T00:24:19.248Z,1.15
2022-12-31T00:26:47.110Z,1.15
2022-12-31T00:29:14.927Z,1.14
2022-12-31T00:31:42.788Z,1.13
2022-12-31T00:34:13.260Z,1.13
2022-12-31T00:36:42.773Z,1.11
2022-12-31T00:39:10.876Z,1.08
2022-12-31T00:41:38.851Z,1.08
2022-12-31T00:44:06.724Z,1.05
2022-12-31T00:49:02.080Z,1.04
2022-12-31T00:51:30.115Z,1.00
2022-12-31T00:53:58.505Z,0.94
2022-12-31T00:56:28.113Z,0.90
2022-12-31T00:58:56.644Z,0.82
2022-12-31T01:01:26.392Z,0.80
2022-12-31T01:03:56.331Z,0.76
2022-12-31T01:06:24.282Z,0.72
2022-12-31T01:08:53.260Z,0.69
2022-12-31T01:11:24.630Z,0.64
2022-12-31T01:13:52.619Z,0.60
2022-12-31T01:16:22.555Z,0.56
2022-12-31T01:18:51.642Z,0.54
2022-12-31T01:21:19.893Z,0.51
2022-12-31T01:23:47.820Z,0.48
2022-12-31T01:26:16.560Z,0.43
2022-12-31T01:28:44.577Z,0.40
2022-12-31T01:31:15.241Z,0.38
2022-12-31T01:33:43.830Z,0.33
2022-12-31T01:36:13.568Z,0.31
2022-12-31T01:38:41.749Z,0.29
2022-12-31T01:41:14.100Z,0.27
2022-12-31T01:43:56.836Z,0.25
2022-12-31T01:46:27.801Z,0.23
2022-12-31T01:49:01.737Z,0.20
2022-12-31T01:51:31.391Z,0.18
2022-12-31T01:54:01.430Z,0.16
2022-12-31T01:56:29.287Z,0.12
2022-12-31T01:58:58.279Z,0.07
2022-12-31T02:01:28.530Z,0.02
2022-12-31T02:03:57.709Z,-0.05
2022-12-31T02:06:35.202Z,-0.08
2022-12-31T02:09:03.210Z,-0.14
2022-12-31T02:11:33.059Z,-0.17
2022-12-31T02:14:03.854Z,-0.22
2022-12-31T02:16:34.640Z,-0.27
2022-12-31T02:19:10.954Z,-0.29
2022-12-31T02:21:48.149Z,-0.30
2022-12-31T02:24:19.164Z,-0.31
2022-12-31T02:26:53.710Z,-0.33
2022-12-31T02:29:40.010Z,-0.34
2022-12-31T02:32:12.663Z,-0.36
2022-12-31T02:34:50.855Z,-0.38
2022-12-31T02:37:20.123Z,-0.42
2022-12-31T02:39:48.269Z,-0.45
2022-12-31T02:42:16.120Z,-0.48
2022-12-31T02:44:43.988Z,-0.47
2022-12-31T02:47:18.018Z,-0.47
2022-12-31T02:49:48.711Z,-0.48
2022-12-31T02:52:33.292Z,-0.51
2022-12-31T02:55:11.456Z,-0.51
2022-12-31T02:57:59.619Z,-0.53
2022-12-31T03:00:47.954Z,-0.54
2022-12-31T03:03:15.894Z,-0.52
2022-12-31T03:05:44.991Z,-0.47
2022-12-31T03:08:20.374Z,-0.44
2022-12-31T03:10:48.160Z,-0.41
2022-12-31T03:13:16.167Z,-0.38
2022-12-31T03:15:44.024Z,-0.34
2022-12-31T03:18:15.971Z,-0.31
2022-12-31T03:21:02.486Z,-0.28
2022-12-31T03:23:32.228Z,-0.26
2022-12-31T03:26:00.563Z,-0.23
2022-12-31T03:28:30.651Z,-0.19
2022-12-31T03:31:00.251Z,-0.19
2022-12-31T03:33:36.633Z,-0.14
2022-12-31T03:36:05.586Z,-0.15
2022-12-31T03:38:33.367Z,-0.18
2022-12-31T03:41:01.500Z,-0.14
2022-12-31T03:43:29.310Z,-0.15
2022-12-31T03:45:59.829Z,-0.09
2022-12-31T03:48:27.884Z,-0.06
2022-12-31T03:50:55.723Z,-0.05
2022-12-31T03:53:23.591Z,-0.03
2022-12-31T03:55:52.623Z,0.03
2022-12-31T03:58:20.751Z,0.05
2022-12-31T04:00:48.659Z,0.09
2022-12-31T04:03:16.650Z,0.11
2022-12-31T04:05:44.511Z,0.14
2022-12-31T04:08:12.674Z,0.18
2022-12-31T04:10:40.476Z,0.17
2022-12-31T04:13:08.243Z,0.18
2022-12-31T04:15:35.988Z,0.21
2022-12-31T04:18:03.828Z,0.24
2022-12-31T04:20:31.606Z,0.23
2022-12-31T04:22:59.373Z,0.22
2022-12-31T04:25:27.170Z,0.29
2022-12-31T04:27:55.519Z,0.28
2022-12-31T04:30:23.349Z,0.28
2022-12-31T04:32:51.094Z,0.32
2022-12-31T04:35:18.995Z,0.35
2022-12-31T04:37:46.777Z,0.38
2022-12-31T04:40:14.719Z,0.43
2022-12-31T04:42:42.926Z,0.47
2022-12-31T04:45:10.861Z,0.56
2022-12-31T04:47:38.732Z,0.54
2022-12-31T04:50:07.738Z,0.55
2022-12-31T04:52:40.534Z,0.52
2022-12-31T04:55:10.907Z,0.51
2022-12-31T04:57:39.036Z,0.59
2022-12-31T05:00:08.154Z,0.60
2022-12-31T05:02:36.303Z,0.61
2022-12-31T05:05:04.988Z,0.60
2022-12-31T05:07:32.949Z,0.63
2022-12-31T05:10:00.762Z,0.66
2022-12-31T05:12:28.938Z,0.66
2022-12-31T05:14:56.798Z,0.61
2022-12-31T05:17:24.575Z,0.60
2022-12-31T05:19:52.370Z,0.53
2022-12-31T05:22:29.214Z,0.53
2022-12-31T05:24:58.179Z,0.61
2022-12-31T05:27:27.582Z,0.68
2022-12-31T05:29:55.364Z,0.70
2022-12-31T05:32:23.188Z,0.75
2022-12-31T05:34:51.038Z,0.82
2022-12-31T05:37:18.932Z,0.88
2022-12-31T05:39:46.896Z,0.91
2022-12-31T05:42:14.773Z,0.92
2022-12-31T05:44:42.524Z,0.97
2022-12-31T05:47:10.258Z,0.93
2022-12-31T05:49:38.042Z,0.94
2022-12-31T05:52:06.872Z,0.94
2022-12-31T05:54:34.746Z,0.82
2022-12-31T05:57:03.055Z,0.82
2022-12-31T05:59:31.114Z,0.79
2022-12-31T06:01:59.139Z,0.72
2022-12-31T06:04:26.935Z,0.71
2022-12-31T06:06:55.134Z,0.74
2022-12-31T06:09:23.033Z,0.71
2022-12-31T06:11:50.970Z,0.66
2022-12-31T06:14:18.791Z,0.65
2022-12-31T06:16:46.740Z,0.66
2022-12-31T06:19:14.727Z,0.65
2022-12-31T06:21:42.494Z,0.60
2022-12-31T06:24:10.226Z,0.65
2022-12-31T06:26:40.193Z,0.68
2022-12-31T06:29:08.033Z,0.70
2022-12-31T06:31:36.349Z,0.72
2022-12-31T06:34:04.461Z,0.73
2022-12-31T06:36:32.270Z,0.77
2022-12-31T06:39:01.727Z,0.80
2022-12-31T06:41:31.126Z,0.90
2022-12-31T06:43:58.884Z,0.98
2022-12-31T06:46:27.075Z,1.04
2022-12-31T06:48:54.971Z,1.12
2022-12-31T06:51:22.982Z,1.22
2022-12-31T06:53:51.858Z,1.32
2022-12-31T06:56:21.447Z,1.41
2022-12-31T06:58:49.798Z,1.46
2022-12-31T07:01:20.548Z,1.51
2022-12-31T07:03:57.819Z,1.60
2022-12-31T07:06:28.594Z,1.65
2022-12-31T07:09:14.179Z,1.66
2022-12-31T07:12:00.895Z,1.68
2022-12-31T07:14:34.520Z,1.68
2022-12-31T07:17:25.086Z,1.70
2022-12-31T07:20:01.802Z,1.73
2022-12-31T07:22:29.838Z,1.80
2022-12-31T07:24:57.716Z,1.87
2022-12-31T07:27:44.404Z,1.90
2022-12-31T07:30:24.781Z,1.89
2022-12-31T07:33:10.736Z,1.91
2022-12-31T07:36:08.856Z,1.88
2022-12-31T07:38:36.707Z,1.98
2022-12-31T07:41:09.937Z,2.13
2022-12-31T07:43:45.118Z,2.24
2022-12-31T07:46:32.294Z,2.36
2022-12-31T07:49:00.383Z,2.45
2022-12-31T07:51:28.401Z,2.39
2022-12-31T07:53:56.306Z,2.48
2022-12-31T07:56:24.134Z,2.55
2022-12-31T07:59:10.813Z,2.47
2022-12-31T08:02:12.231Z,2.47
2022-12-31T08:04:49.328Z,2.57
2022-12-31T08:07:17.386Z,2.61
2022-12-31T08:09:51.451Z,2.60
2022-12-31T08:12:21.398Z,2.60
2022-12-31T08:14:49.461Z,2.66
2022-12-31T08:17:18.751Z,2.56
2022-12-31T08:19:47.091Z,2.50
2022-12-31T08:22:21.083Z,2.51
2022-12-31T08:24:48.962Z,2.43
2022-12-31T08:27:26.000Z,2.55
2022-12-31T08:30:06.207Z,2.59
2022-12-31T08:32:46.578Z,2.61
2022-12-31T08:35:20.951Z,2.79
2022-12-31T08:38:09.828Z,2.84
2022-12-31T08:40:47.454Z,2.90
2022-12-31T08:43:38.505Z,2.95
2022-12-31T08:46:11.315Z,3.00
2022-12-31T08:48:43.721Z,3.10
2022-12-31T08:51:17.756Z,3.04
2022-12-31T08:53:45.732Z,3.21
2022-12-31T08:56:26.494Z,3.40
2022-12-31T08:59:13.115Z,3.53
2022-12-31T09:02:01.461Z,3.66
2022-12-31T09:04:29.522Z,3.78
2022-12-31T09:07:02.342Z,3.97
2022-12-31T09:09:36.386Z,4.04
2022-12-31T09:12:10.742Z,4.05
2022-12-31T09:14:43.942Z,4.03
2022-12-31T09:17:24.269Z,4.17
2022-12-31T09:19:52.298Z,4.19
2022-12-31T09:22:20.546Z,4.18
2022-12-31T09:24:48.554Z,4.33
2022-12-31T09:27:27.844Z,4.55
2022-12-31T09:30:04.811Z,4.65
2022-12-31T09:32:32.653Z,4.65
2022-12-31T09:35:08.037Z,4.74
2022-12-31T09:37:35.968Z,4.81
2022-12-31T09:40:26.937Z,4.95
2022-12-31T09:43:00.060Z,5.09
2022-12-31T09:45:44.680Z,5.10
2022-12-31T09:48:12.996Z,4.98
2022-12-31T09:50:40.884Z,4.94
2022-12-31T09:53:27.996Z,5.02
2022-12-31T09:56:02.226Z,5.16
2022-12-31T09:58:38.126Z,5.22
2022-12-31T10:01:24.336Z,5.17
2022-12-31T10:03:52.215Z,5.07
2022-12-31T10:06:37.921Z,5.07
2022-12-31T10:09:08.704Z,5.06
2022-12-31T10:11:36.585Z,5.02
2022-12-31T10:14:10.766Z,5.09
2022-12-31T10:16:41.655Z,4.98
2022-12-31T10:19:12.788Z,5.13
2022-12-31T10:22:00.190Z,5.21
2022-12-31T10:24:38.506Z,5.23
2022-12-31T10:27:25.380Z,5.21
2022-12-31T10:30:17.825Z,5.21
2022-12-31T10:32:52.102Z,5.11
2022-12-31T10:35:38.958Z,5.22
2022-12-31T10:38:25.716Z,5.32
2022-12-31T10:41:02.792Z,5.44
2022-12-31T10:43:49.479Z,5.35
2022-12-31T10:46:36.455Z,5.47
2022-12-31T10:49:04.479Z,5.54
2022-12-31T10:51:38.625Z,5.49
2022-12-31T10:54:09.422Z,5.54
2022-12-31T10:57:07.392Z,5.52
2022-12-31T10:59:54.594Z,5.69
2022-12-31T11:02:30.023Z,5.64
2022-12-31T11:04:58.947Z,5.71
2022-12-31T11:07:46.778Z,5.75
2022-12-31T11:10:33.243Z,5.81
2022-12-31T11:13:01.001Z,5.79
2022-12-31T11:15:50.230Z,5.76
2022-12-31T11:18:36.888Z,5.69
2022-12-31T11:21:13.007Z,5.73
2022-12-31T11:23:53.273Z,5.63
2022-12-31T11:26:41.641Z,5.64
2022-12-31T11:29:24.571Z,5.86
2022-12-31T11:31:59.858Z,5.85
2022-12-31T11:34:37.407Z,5.90
2022-12-31T11:37:09.683Z,6.07
2022-12-31T11:39:57.381Z,6.08
2022-12-31T11:42:41.834Z,6.18
2022-12-31T11:45:29.434Z,6.20
2022-12-31T11:48:29.268Z,6.37
2022-12-31T11:50:53.719Z,6.39
2022-12-31T11:53:39.858Z,6.48
2022-12-31T11:56:10.367Z,6.59
2022-12-31T11:58:39.138Z,6.65
2022-12-31T12:01:17.921Z,6.69
2022-12-31T12:03:46.380Z,6.75
2022-12-31T12:06:15.886Z,6.82
2022-12-31T12:08:44.455Z,6.79
2022-12-31T12:11:21.450Z,6.76
2022-12-31T12:13:49.648Z,6.78
2022-12-31T12:16:20.085Z,6.77
2022-12-31T12:18:49.840Z,6.89
2022-12-31T12:21:20.568Z,6.97
2022-12-31T12:23:59.216Z,7.09
2022-12-31T12:26:29.970Z,7.18
2022-12-31T12:29:00.087Z,7.26
2022-12-31T12:31:28.232Z,7.30
2022-12-31T12:33:57.597Z,7.33
2022-12-31T12:36:25.432Z,7.37
2022-12-31T12:39:04.455Z,7.41
2022-12-31T12:41:32.630Z,7.47
2022-12-31T12:44:05.058Z,7.45
2022-12-31T12:46:34.866Z,7.49
2022-12-31T12:49:03.847Z,7.47
2022-12-31T12:51:58.251Z,7.48
2022-12-31T12:54:29.127Z,7.59
2022-12-31T12:57:05.601Z,7.66
2022-12-31T12:59:39.859Z,7.61
2022-12-31T13:02:17.165Z,7.57
2022-12-31T13:04:45.314Z,7.61
2022-12-31T13:07:19.160Z,7.57
2022-12-31T13:09:54.177Z,7.54
2022-12-31T13:12:22.069Z,7.63
2022-12-31T13:14:59.624Z,7.59
2022-12-31T13:17:49.765Z,7.65
2022-12-31T13:20:28.322Z,7.72
2022-12-31T13:23:00.002Z,7.76
2022-12-31T13:25:33.673Z,7.75
2022-12-31T13:28:05.215Z,7.78
2022-12-31T13:30:38.138Z,7.85
2022-12-31T13:33:32.116Z,7.86
2022-12-31T13:36:08.981Z,7.81
2022-12-31T13:38:41.629Z,7.75
2022-12-31T13:41:14.030Z,7.77
2022-12-31T13:43:58.518Z,7.71
2022-12-31T13:46:47.059Z,7.71
2022-12-31T13:49:18.450Z,7.70
2022-12-31T13:51:48.528Z,7.66
2022-12-31T13:54:19.276Z,7.63
2022-12-31T13:56:49.513Z,7.61
2022-12-31T13:59:30.442Z,7.53
2022-12-31T14:02:07.384Z,7.53
2022-12-31T14:04:50.642Z,7.59
2022-12-31T14:07:22.230Z,7.61
2022-12-31T14:09:50.893Z,7.61
2022-12-31T14:12:18.713Z,7.61
2022-12-31T14:14:52.395Z,7.62
2022-12-31T14:17:23.508Z,7.57
2022-12-31T14:20:14.831Z,7.57
2022-12-31T14:22:42.693Z,7.49
2022-12-31T14:25:20.400Z,7.50
2022-12-31T14:27:50.994Z,7.48
2022-12-31T14:30:23.489Z,7.41
2022-12-31T14:33:21.190Z,7.38
2022-12-31T14:35:48.966Z,7.34
2022-12-31T14:38:35.447Z,7.33
2022-12-31T14:41:15.587Z,7.32
2022-12-31T14:43:52.789Z,7.28
2022-12-31T14:46:32.896Z,7.28
2022-12-31T14:49:00.737Z,7.30
2022-12-31T14:51:29.511Z,7.28
2022-12-31T14:53:59.022Z,7.21
2022-12-31T14:56:32.188Z,7.18
2022-12-31T14:59:01.288Z,7.11
2022-12-31T15:01:29.729Z,7.06
2022-12-31T15:03:58.483Z,7.03
2022-12-31T15:06:35.864Z,7.00
2022-12-31T15:09:08.511Z,6.90
2022-12-31T15:11:39.757Z,6.91
2022-12-31T15:14:16.794Z,6.91
2022-12-31T15:16:47.890Z,6.92
2022-12-31T15:19:19.294Z,6.90
2022-12-31T15:22:03.918Z,6.94
2022-12-31T15:24:31.910Z,6.95
2022-12-31T15:27:01.621Z,6.95
2022-12-31T15:29:50.104Z,6.96
2022-12-31T15:32:20.277Z,6.94
2022-12-31T15:34:48.207Z,6.95
2022-12-31T15:37:29.445Z,6.95
2022-12-31T15:40:15.825Z,6.91
2022-12-31T15:42:51.227Z,6.91
2022-12-31T15:45:23.042Z,6.86
2022-12-31T15:47:55.042Z,6.84
2022-12-31T15:50:24.027Z,6.84
2022-12-31T15:52:55.607Z,6.84
2022-12-31T15:55:49.717Z,6.84
2022-12-31T15:58:21.345Z,6.81
2022-12-31T16:01:07.043Z,6.85
2022-12-31T16:03:36.671Z,6.88
2022-12-31T16:06:10.745Z,6.90
2022-12-31T16:08:39.537Z,6.94
2022-12-31T16:11:08.477Z,6.93
2022-12-31T16:13:39.242Z,6.94
2022-12-31T16:16:09.324Z,6.95
2022-12-31T16:18:41.988Z,6.97
2022-12-31T16:21:48.340Z,6.97
2022-12-31T16:24:33.174Z,6.94
2022-12-31T16:27:09.335Z,6.91
2022-12-31T16:29:41.737Z,6.88
2022-12-31T16:32:17.743Z,6.78
2022-12-31T16:34:46.221Z,6.77
2022-12-31T16:37:16.944Z,6.78
2022-12-31T16:39:56.986Z,6.74
2022-12-31T16:42:26.396Z,6.76
2022-12-31T16:44:55.664Z,6.78
2022-12-31T16:47:30.328Z,6.80
2022-12-31T16:49:58.146Z,6.70
2022-12-31T16:52:33.802Z,6.73
2022-12-31T16:55:01.976Z,6.77
2022-12-31T16:57:31.203Z,6.80
2022-12-31T17:00:02.016Z,6.83
2022-12-31T17:02:34.051Z,6.90
2022-12-31T17:05:02.681Z,6.94
2022-12-31T17:07:30.511Z,6.97
2022-12-31T17:10:24.886Z,6.98
2022-12-31T17:15:45.620Z,6.85
2022-12-31T17:18:22.231Z,6.77
2022-12-31T17:20:51.584Z,6.77
2022-12-31T17:23:23.577Z,6.72
2022-12-31T17:25:57.792Z,6.67
2022-12-31T17:28:40.131Z,6.72
2022-12-31T17:31:26.336Z,6.68
2022-12-31T17:34:03.927Z,6.74
2022-12-31T17:36:31.807Z,6.72
2022-12-31T17:39:32.130Z,6.71
2022-12-31T17:41:59.948Z,6.76
2022-12-31T17:44:29.135Z,6.81
2022-12-31T17:46:57.711Z,6.81
2022-12-31T17:49:29.891Z,6.83
2022-12-31T17:52:00.230Z,6.85
2022-12-31T17:54:28.315Z,6.83
2022-12-31T17:56:56.204Z,6.77
2022-12-31T17:59:29.756Z,6.74
2022-12-31T18:02:00.053Z,6.74
2022-12-31T18:04:28.148Z,6.70
2022-12-31T18:06:55.910Z,6.65
2022-12-31T18:09:23.812Z,6.65
2022-12-31T18:11:54.340Z,6.61
2022-12-31T18:14:24.799Z,6.50
2022-12-31T18:16:52.656Z,6.54
2022-12-31T18:19:54.194Z,6.52
2022-12-31T18:22:13.189Z,6.52
2022-12-31T18:24:41.233Z,6.49
2022-12-31T18:27:14.582Z,6.45
2022-12-31T18:29:42.467Z,6.53
2022-12-31T18:32:20.847Z,6.54
2022-12-31T18:34:49.039Z,6.56
2022-12-31T18:37:21.660Z,6.51
2022-12-31T18:39:50.277Z,6.49
2022-12-31T18:42:18.812Z,6.48
2022-12-31T18:44:46.748Z,6.45
2022-12-31T18:47:16.781Z,6.46
2022-12-31T18:49:48.724Z,6.42
2022-12-31T18:52:18.396Z,6.40
2022-12-31T18:54:46.380Z,6.33
2022-12-31T18:57:15.285Z,6.14
2022-12-31T18:59:43.646Z,6.20
2022-12-31T19:02:16.418Z,6.19
2022-12-31T19:04:45.118Z,6.18
2022-12-31T19:07:12.969Z,6.16
2022-12-31T19:09:45.714Z,6.11
2022-12-31T19:12:15.106Z,6.16
2022-12-31T19:14:42.971Z,6.10
2022-12-31T19:19:41.228Z,6.13
2022-12-31T19:22:13.590Z,6.11
2022-12-31T19:24:41.926Z,6.16
2022-12-31T19:27:10.137Z,6.19
2022-12-31T19:29:38.225Z,6.18
2022-12-31T19:32:07.386Z,6.15
2022-12-31T19:34:35.214Z,6.13
2022-12-31T19:37:03.032Z,6.11
2022-12-31T19:39:31.158Z,6.10
2022-12-31T19:42:01.838Z,6.13
2022-12-31T19:44:30.197Z,6.13
2022-12-31T19:46:58.536Z,6.15
2022-12-31T19:49:26.460Z,6.17
2022-12-31T19:51:54.391Z,6.19
2022-12-31T19:54:22.217Z,6.22
2022-12-31T19:56:50.172Z,6.25
2022-12-31T19:59:18.129Z,6.28
2022-12-31T20:01:46.097Z,6.30
2022-12-31T20:04:14.011Z,6.31
2022-12-31T20:06:41.899Z,6.31
2022-12-31T20:09:11.002Z,6.26
2022-12-31T20:11:38.888Z,6.28
2022-12-31T20:14:06.796Z,6.29
2022-12-31T20:16:34.687Z,6.27
2022-12-31T20:19:02.564Z,6.25
2022-12-31T20:21:30.451Z,6.26
2022-12-31T20:23:58.459Z,6.25
2022-12-31T20:26:26.764Z,6.26
2022-12-31T20:28:54.613Z,6.26
2022-12-31T20:31:26.492Z,6.26
2022-12-31T20:33:55.334Z,6.27
2022-12-31T20:36:23.814Z,6.28
2022-12-31T20:38:51.822Z,6.28
2022-12-31T20:41:20.999Z,6.29
2022-12-31T20:43:49.620Z,6.29
2022-12-31T20:46:25.190Z,6.32
2022-12-31T20:48:54.454Z,6.29
2022-12-31T20:51:22.815Z,6.29
2022-12-31T20:53:58.200Z,6.30
2022-12-31T20:56:26.950Z,6.28
2022-12-31T20:58:54.854Z,6.26
2022-12-31T21:01:25.476Z,6.25
2022-12-31T21:04:09.451Z,6.23
2022-12-31T21:06:37.698Z,6.25
2022-12-31T21:09:06.515Z,6.27
2022-12-31T21:11:53.475Z,6.28
2022-12-31T21:14:21.731Z,6.31
2022-12-31T21:16:49.643Z,6.34
2022-12-31T21:19:17.497Z,6.33
2022-12-31T21:21:45.273Z,6.33
2022-12-31T21:24:13.061Z,6.37
2022-12-31T21:26:40.953Z,6.39
2022-12-31T21:29:08.779Z,6.38
2022-12-31T21:31:36.604Z,6.36
2022-12-31T21:34:04.419Z,6.25
2022-12-31T21:36:32.236Z,6.28
2022-12-31T21:39:00.189Z,6.31
2022-12-31T21:41:46.504Z,6.30
2022-12-31T21:44:14.350Z,6.30
2022-12-31T21:47:00.784Z,6.35
2022-12-31T21:49:30.334Z,6.38
2022-12-31T21:52:16.963Z,6.40
2022-12-31T21:55:03.367Z,6.41
2022-12-31T21:57:46.250Z,6.45
2022-12-31T22:00:43.029Z,6.48
2022-12-31T22:03:33.017Z,6.46
2022-12-31T22:06:14.421Z,6.43
2022-12-31T22:08:43.582Z,6.37
2022-12-31T22:11:12.107Z,6.39
2022-12-31T22:13:40.886Z,6.38
2022-12-31T22:16:08.939Z,6.37
2022-12-31T22:18:41.391Z,6.35
2022-12-31T22:21:17.413Z,6.33
2022-12-31T22:23:47.616Z,6.29
2022-12-31T22:26:18.219Z,6.26
2022-12-31T22:28:47.785Z,6.24
2022-12-31T22:31:17.754Z,6.22
2022-12-31T22:33:46.358Z,6.18
2022-12-31T22:36:17.032Z,6.15
2022-12-31T22:38:45.376Z,6.16
2022-12-31T22:41:14.390Z,6.17
2022-12-31T22:43:43.386Z,6.17
2022-12-31T22:46:18.886Z,6.17
2022-12-31T22:48:47.322Z,6.21
2022-12-31T22:51:15.953Z,6.24
2022-12-31T22:53:44.910Z,6.25
2022-12-31T22:56:14.150Z,6.26
2022-12-31T22:58:43.070Z,6.30
2022-12-31T23:01:22.434Z,6.35
2022-12-31T23:03:51.477Z,6.37
2022-12-31T23:06:19.922Z,6.37
2022-12-31T23:09:06.595Z,6.39
2022-12-31T23:11:35.229Z,6.42
2022-12-31T23:14:22.137Z,6.32
2022-12-31T23:17:29.153Z,6.23
2022-12-31T23:20:15.820Z,6.23
2022-12-31T23:23:02.366Z,6.19
2022-12-31T23:25:38.240Z,6.19
2022-12-31T23:28:07.099Z,6.19
2022-12-31T23:30:37.403Z,6.20
2022-12-31T23:33:05.344Z,6.21
2022-12-31T23:35:33.605Z,6.27
2022-12-31T23:38:01.996Z,6.29
2022-12-31T23:40:34.749Z,6.26
2022-12-31T23:43:03.605Z,6.21
2022-12-31T23:45:33.466Z,6.22
2022-12-31T23:48:01.661Z,6.24
2022-12-31T23:50:29.533Z,6.22
2022-12-31T23:52:57.399Z,6.23
2022-12-31T23:55:25.462Z,6.15
2022-12-31T23:57:53.743Z,6.12
